sensor_id;sensor_type;location;lat;lon;timestamp;P1;durP1;ratioP1;P2;durP2;ratioP2
20870;SDS011;10595;51.218;3.452;2022-09-09T00:04:40;7.57;;;4.00;;
20870;SDS011;10595;51.218;3.452;2022-09-09T00:09:40;10.97;;;4.60;;
20870;SDS011;10595;51.218;3.452;2022-09-09T00:12:11;12.53;;;5.07;;
20870;SDS011;10595;51.218;3.452;2022-09-09T00:17:15;8.20;;;4.27;;
20870;SDS011;10595;51.218;3.452;2022-09-09T00:22:16;8.77;;;4.07;;
20870;SDS011;10595;51.218;3.452;2022-09-09T00:27:46;5.27;;;3.50;;
20870;SDS011;10595;51.218;3.452;2022-09-09T00:30:20;7.53;;;3.60;;
20870;SDS011;10595;51.218;3.452;2022-09-09T00:32:48;8.13;;;3.53;;
20870;SDS011;10595;51.218;3.452;2022-09-09T00:35:25;14.27;;;4.60;;
20870;SDS011;10595;51.218;3.452;2022-09-09T00:37:54;7.10;;;3.57;;
20870;SDS011;10595;51.218;3.452;2022-09-09T00:40:35;8.67;;;3.13;;
20870;SDS011;10595;51.218;3.452;2022-09-09T00:48:00;5.57;;;3.13;;
20870;SDS011;10595;51.218;3.452;2022-09-09T00:50:36;7.67;;;3.17;;
20870;SDS011;10595;51.218;3.452;2022-09-09T00:58:06;6.63;;;2.60;;
20870;SDS011;10595;51.218;3.452;2022-09-09T01:10:55;8.33;;;3.10;;
20870;SDS011;10595;51.218;3.452;2022-09-09T01:13:26;4.97;;;2.30;;
20870;SDS011;10595;51.218;3.452;2022-09-09T01:15:55;5.33;;;2.23;;
20870;SDS011;10595;51.218;3.452;2022-09-09T01:18:26;5.73;;;2.40;;
20870;SDS011;10595;51.218;3.452;2022-09-09T01:28:35;5.53;;;2.60;;
20870;SDS011;10595;51.218;3.452;2022-09-09T01:31:02;6.43;;;2.10;;
20870;SDS011;10595;51.218;3.452;2022-09-09T01:33:29;5.33;;;2.00;;
20870;SDS011;10595;51.218;3.452;2022-09-09T01:35:57;9.07;;;2.17;;
20870;SDS011;10595;51.218;3.452;2022-09-09T01:38:25;8.83;;;2.60;;
20870;SDS011;10595;51.218;3.452;2022-09-09T01:40:51;6.90;;;2.43;;
20870;SDS011;10595;51.218;3.452;2022-09-09T01:43:21;7.47;;;2.13;;
20870;SDS011;10595;51.218;3.452;2022-09-09T01:45:48;7.37;;;2.30;;
20870;SDS011;10595;51.218;3.452;2022-09-09T01:48:16;7.53;;;2.53;;
20870;SDS011;10595;51.218;3.452;2022-09-09T01:50:43;7.63;;;2.40;;
20870;SDS011;10595;51.218;3.452;2022-09-09T01:53:09;6.00;;;2.57;;
20870;SDS011;10595;51.218;3.452;2022-09-09T01:55:37;5.67;;;2.37;;
20870;SDS011;10595;51.218;3.452;2022-09-09T01:58:17;6.50;;;2.80;;
20870;SDS011;10595;51.218;3.452;2022-09-09T02:03:25;8.63;;;3.07;;
20870;SDS011;10595;51.218;3.452;2022-09-09T02:08:41;8.67;;;3.33;;
20870;SDS011;10595;51.218;3.452;2022-09-09T02:11:13;8.23;;;3.33;;
20870;SDS011;10595;51.218;3.452;2022-09-09T02:13:39;7.53;;;3.40;;
20870;SDS011;10595;51.218;3.452;2022-09-09T02:21:11;7.37;;;3.63;;
20870;SDS011;10595;51.218;3.452;2022-09-09T02:23:38;9.80;;;3.73;;
20870;SDS011;10595;51.218;3.452;2022-09-09T02:26:06;8.47;;;3.50;;
20870;SDS011;10595;51.218;3.452;2022-09-09T02:28:33;8.60;;;3.27;;
20870;SDS011;10595;51.218;3.452;2022-09-09T02:31:00;11.37;;;3.53;;
20870;SDS011;10595;51.218;3.452;2022-09-09T02:33:27;8.20;;;3.23;;
20870;SDS011;10595;51.218;3.452;2022-09-09T02:35:54;8.73;;;3.20;;
20870;SDS011;10595;51.218;3.452;2022-09-09T02:38:26;6.40;;;2.97;;
20870;SDS011;10595;51.218;3.452;2022-09-09T02:40:54;9.33;;;3.53;;
20870;SDS011;10595;51.218;3.452;2022-09-09T02:43:20;8.23;;;2.93;;
20870;SDS011;10595;51.218;3.452;2022-09-09T02:48:36;10.30;;;2.90;;
20870;SDS011;10595;51.218;3.452;2022-09-09T02:51:48;8.00;;;3.23;;
20870;SDS011;10595;51.218;3.452;2022-09-09T02:56:48;9.10;;;3.40;;
20870;SDS011;10595;51.218;3.452;2022-09-09T02:59:16;9.70;;;2.73;;
20870;SDS011;10595;51.218;3.452;2022-09-09T03:01:43;9.00;;;2.60;;
20870;SDS011;10595;51.218;3.452;2022-09-09T03:04:09;15.70;;;2.90;;
20870;SDS011;10595;51.218;3.452;2022-09-09T03:06:35;9.97;;;2.70;;
20870;SDS011;10595;51.218;3.452;2022-09-09T03:09:01;9.23;;;3.10;;
20870;SDS011;10595;51.218;3.452;2022-09-09T03:11:27;7.83;;;2.50;;
20870;SDS011;10595;51.218;3.452;2022-09-09T03:13:54;9.40;;;2.37;;
20870;SDS011;10595;51.218;3.452;2022-09-09T03:16:21;7.30;;;2.87;;
20870;SDS011;10595;51.218;3.452;2022-09-09T03:18:47;9.53;;;2.77;;
20870;SDS011;10595;51.218;3.452;2022-09-09T03:21:14;9.30;;;2.80;;
20870;SDS011;10595;51.218;3.452;2022-09-09T03:23:40;9.07;;;3.37;;
20870;SDS011;10595;51.218;3.452;2022-09-09T03:26:06;9.33;;;2.80;;
20870;SDS011;10595;51.218;3.452;2022-09-09T03:28:32;6.47;;;2.30;;
20870;SDS011;10595;51.218;3.452;2022-09-09T03:31:01;9.40;;;2.93;;
20870;SDS011;10595;51.218;3.452;2022-09-09T03:33:27;11.73;;;3.07;;
20870;SDS011;10595;51.218;3.452;2022-09-09T03:35:54;8.33;;;3.03;;
20870;SDS011;10595;51.218;3.452;2022-09-09T03:38:22;12.10;;;3.27;;
20870;SDS011;10595;51.218;3.452;2022-09-09T03:40:52;8.97;;;2.80;;
20870;SDS011;10595;51.218;3.452;2022-09-09T03:43:22;14.40;;;3.07;;
20870;SDS011;10595;51.218;3.452;2022-09-09T03:45:48;10.33;;;2.87;;
20870;SDS011;10595;51.218;3.452;2022-09-09T03:48:15;12.53;;;3.13;;
20870;SDS011;10595;51.218;3.452;2022-09-09T03:50:48;9.77;;;3.03;;
20870;SDS011;10595;51.218;3.452;2022-09-09T03:53:15;9.23;;;2.47;;
20870;SDS011;10595;51.218;3.452;2022-09-09T03:55:44;9.17;;;2.73;;
20870;SDS011;10595;51.218;3.452;2022-09-09T03:58:12;14.47;;;2.80;;
20870;SDS011;10595;51.218;3.452;2022-09-09T04:00:38;11.20;;;3.00;;
20870;SDS011;10595;51.218;3.452;2022-09-09T04:03:07;10.53;;;3.00;;
20870;SDS011;10595;51.218;3.452;2022-09-09T04:05:33;9.97;;;3.27;;
20870;SDS011;10595;51.218;3.452;2022-09-09T04:07:59;7.10;;;3.17;;
20870;SDS011;10595;51.218;3.452;2022-09-09T04:10:25;10.47;;;2.40;;
20870;SDS011;10595;51.218;3.452;2022-09-09T04:12:51;10.53;;;2.83;;
20870;SDS011;10595;51.218;3.452;2022-09-09T04:15:17;8.33;;;3.10;;
20870;SDS011;10595;51.218;3.452;2022-09-09T04:17:44;14.27;;;3.23;;
20870;SDS011;10595;51.218;3.452;2022-09-09T04:20:10;10.50;;;3.13;;
20870;SDS011;10595;51.218;3.452;2022-09-09T04:22:37;14.17;;;3.43;;
20870;SDS011;10595;51.218;3.452;2022-09-09T04:25:04;10.47;;;3.20;;
20870;SDS011;10595;51.218;3.452;2022-09-09T04:27:30;14.07;;;3.43;;
20870;SDS011;10595;51.218;3.452;2022-09-09T04:29:56;12.10;;;3.17;;
20870;SDS011;10595;51.218;3.452;2022-09-09T04:32:23;12.70;;;3.83;;
20870;SDS011;10595;51.218;3.452;2022-09-09T04:34:51;12.53;;;3.30;;
20870;SDS011;10595;51.218;3.452;2022-09-09T04:37:17;12.03;;;3.07;;
20870;SDS011;10595;51.218;3.452;2022-09-09T04:39:43;11.73;;;3.53;;
20870;SDS011;10595;51.218;3.452;2022-09-09T04:42:10;13.23;;;3.10;;
20870;SDS011;10595;51.218;3.452;2022-09-09T04:44:36;10.03;;;2.87;;
20870;SDS011;10595;51.218;3.452;2022-09-09T04:47:02;13.07;;;3.57;;
20870;SDS011;10595;51.218;3.452;2022-09-09T04:49:28;13.73;;;3.27;;
20870;SDS011;10595;51.218;3.452;2022-09-09T04:51:55;9.93;;;3.30;;
20870;SDS011;10595;51.218;3.452;2022-09-09T04:54:21;15.77;;;3.43;;
20870;SDS011;10595;51.218;3.452;2022-09-09T04:56:49;12.50;;;3.50;;
20870;SDS011;10595;51.218;3.452;2022-09-09T04:59:15;14.13;;;3.83;;
20870;SDS011;10595;51.218;3.452;2022-09-09T05:01:41;13.53;;;3.60;;
20870;SDS011;10595;51.218;3.452;2022-09-09T05:04:08;12.17;;;3.47;;
20870;SDS011;10595;51.218;3.452;2022-09-09T05:06:34;10.33;;;3.80;;
20870;SDS011;10595;51.218;3.452;2022-09-09T05:09:01;12.73;;;3.53;;
20870;SDS011;10595;51.218;3.452;2022-09-09T05:11:28;11.73;;;3.17;;
20870;SDS011;10595;51.218;3.452;2022-09-09T05:13:54;14.47;;;3.37;;
20870;SDS011;10595;51.218;3.452;2022-09-09T05:16:24;13.00;;;3.67;;
20870;SDS011;10595;51.218;3.452;2022-09-09T05:18:51;13.10;;;3.47;;
20870;SDS011;10595;51.218;3.452;2022-09-09T05:21:17;19.00;;;3.83;;
20870;SDS011;10595;51.218;3.452;2022-09-09T05:23:44;14.10;;;4.17;;
20870;SDS011;10595;51.218;3.452;2022-09-09T05:26:17;17.93;;;4.20;;
20870;SDS011;10595;51.218;3.452;2022-09-09T05:28:44;14.17;;;3.43;;
20870;SDS011;10595;51.218;3.452;2022-09-09T05:31:10;17.40;;;4.03;;
20870;SDS011;10595;51.218;3.452;2022-09-09T05:33:37;14.27;;;3.70;;
20870;SDS011;10595;51.218;3.452;2022-09-09T05:36:06;14.67;;;3.47;;
20870;SDS011;10595;51.218;3.452;2022-09-09T05:38:33;18.47;;;4.63;;
20870;SDS011;10595;51.218;3.452;2022-09-09T05:40:59;15.87;;;3.77;;
20870;SDS011;10595;51.218;3.452;2022-09-09T05:43:26;14.17;;;3.73;;
20870;SDS011;10595;51.218;3.452;2022-09-09T05:45:59;11.60;;;3.53;;
20870;SDS011;10595;51.218;3.452;2022-09-09T05:48:33;16.17;;;3.60;;
20870;SDS011;10595;51.218;3.452;2022-09-09T05:50:59;12.37;;;3.63;;
20870;SDS011;10595;51.218;3.452;2022-09-09T05:53:29;18.70;;;4.13;;
20870;SDS011;10595;51.218;3.452;2022-09-09T05:56:03;10.47;;;3.60;;
20870;SDS011;10595;51.218;3.452;2022-09-09T05:58:32;10.83;;;3.53;;
20870;SDS011;10595;51.218;3.452;2022-09-09T06:03:28;13.17;;;4.07;;
20870;SDS011;10595;51.218;3.452;2022-09-09T06:05:57;15.17;;;4.03;;
20870;SDS011;10595;51.218;3.452;2022-09-09T06:08:24;13.60;;;3.47;;
20870;SDS011;10595;51.218;3.452;2022-09-09T06:10:50;14.93;;;4.13;;
20870;SDS011;10595;51.218;3.452;2022-09-09T06:13:17;15.07;;;4.27;;
20870;SDS011;10595;51.218;3.452;2022-09-09T06:15:52;10.20;;;3.60;;
20870;SDS011;10595;51.218;3.452;2022-09-09T06:18:18;14.10;;;4.30;;
20870;SDS011;10595;51.218;3.452;2022-09-09T06:20:54;14.83;;;3.63;;
20870;SDS011;10595;51.218;3.452;2022-09-09T06:23:20;11.27;;;4.10;;
20870;SDS011;10595;51.218;3.452;2022-09-09T06:25:46;14.87;;;3.73;;
20870;SDS011;10595;51.218;3.452;2022-09-09T06:28:14;16.57;;;4.00;;
20870;SDS011;10595;51.218;3.452;2022-09-09T06:30:40;14.77;;;3.97;;
20870;SDS011;10595;51.218;3.452;2022-09-09T06:33:06;11.37;;;3.50;;
20870;SDS011;10595;51.218;3.452;2022-09-09T06:35:32;10.60;;;3.80;;
20870;SDS011;10595;51.218;3.452;2022-09-09T06:37:58;14.47;;;3.73;;
20870;SDS011;10595;51.218;3.452;2022-09-09T06:40:24;11.53;;;3.70;;
20870;SDS011;10595;51.218;3.452;2022-09-09T06:42:50;15.97;;;4.40;;
20870;SDS011;10595;51.218;3.452;2022-09-09T06:45:16;14.10;;;3.70;;
20870;SDS011;10595;51.218;3.452;2022-09-09T06:47:43;9.27;;;3.60;;
20870;SDS011;10595;51.218;3.452;2022-09-09T06:50:09;15.37;;;4.17;;
20870;SDS011;10595;51.218;3.452;2022-09-09T06:52:36;12.57;;;3.20;;
20870;SDS011;10595;51.218;3.452;2022-09-09T06:55:02;14.90;;;3.53;;
20870;SDS011;10595;51.218;3.452;2022-09-09T06:57:28;12.67;;;3.43;;
20870;SDS011;10595;51.218;3.452;2022-09-09T06:59:54;10.87;;;3.10;;
20870;SDS011;10595;51.218;3.452;2022-09-09T07:02:20;11.23;;;3.10;;
20870;SDS011;10595;51.218;3.452;2022-09-09T07:04:46;12.17;;;3.20;;
20870;SDS011;10595;51.218;3.452;2022-09-09T07:07:15;10.47;;;3.17;;
20870;SDS011;10595;51.218;3.452;2022-09-09T07:09:42;17.37;;;3.47;;
20870;SDS011;10595;51.218;3.452;2022-09-09T07:12:11;12.57;;;3.00;;
20870;SDS011;10595;51.218;3.452;2022-09-09T07:14:37;9.67;;;2.70;;
20870;SDS011;10595;51.218;3.452;2022-09-09T07:17:04;11.50;;;2.80;;
20870;SDS011;10595;51.218;3.452;2022-09-09T07:19:30;12.33;;;3.30;;
20870;SDS011;10595;51.218;3.452;2022-09-09T07:21:56;10.03;;;3.33;;
20870;SDS011;10595;51.218;3.452;2022-09-09T07:24:22;12.63;;;3.10;;
20870;SDS011;10595;51.218;3.452;2022-09-09T07:26:48;11.00;;;3.80;;
20870;SDS011;10595;51.218;3.452;2022-09-09T07:29:14;12.97;;;3.40;;
20870;SDS011;10595;51.218;3.452;2022-09-09T07:31:40;10.70;;;4.03;;
20870;SDS011;10595;51.218;3.452;2022-09-09T07:34:06;13.30;;;3.33;;
20870;SDS011;10595;51.218;3.452;2022-09-09T07:36:33;13.80;;;3.13;;
20870;SDS011;10595;51.218;3.452;2022-09-09T07:39:01;11.17;;;3.27;;
20870;SDS011;10595;51.218;3.452;2022-09-09T07:41:35;11.53;;;3.00;;
20870;SDS011;10595;51.218;3.452;2022-09-09T07:44:06;9.47;;;2.90;;
20870;SDS011;10595;51.218;3.452;2022-09-09T07:46:33;9.13;;;2.97;;
20870;SDS011;10595;51.218;3.452;2022-09-09T07:48:59;14.93;;;3.33;;
20870;SDS011;10595;51.218;3.452;2022-09-09T07:51:26;9.23;;;3.00;;
20870;SDS011;10595;51.218;3.452;2022-09-09T07:53:54;9.03;;;3.07;;
20870;SDS011;10595;51.218;3.452;2022-09-09T07:56:20;7.97;;;2.53;;
20870;SDS011;10595;51.218;3.452;2022-09-09T07:58:48;8.97;;;2.53;;
20870;SDS011;10595;51.218;3.452;2022-09-09T08:01:15;11.23;;;2.60;;
20870;SDS011;10595;51.218;3.452;2022-09-09T08:03:45;8.60;;;3.27;;
20870;SDS011;10595;51.218;3.452;2022-09-09T08:06:12;12.23;;;2.93;;
20870;SDS011;10595;51.218;3.452;2022-09-09T08:08:39;14.63;;;3.57;;
20870;SDS011;10595;51.218;3.452;2022-09-09T08:11:11;10.67;;;3.00;;
20870;SDS011;10595;51.218;3.452;2022-09-09T08:13:37;10.13;;;3.17;;
20870;SDS011;10595;51.218;3.452;2022-09-09T08:16:07;7.57;;;2.87;;
20870;SDS011;10595;51.218;3.452;2022-09-09T08:18:33;15.07;;;3.47;;
20870;SDS011;10595;51.218;3.452;2022-09-09T08:21:06;12.47;;;2.93;;
20870;SDS011;10595;51.218;3.452;2022-09-09T08:23:33;12.20;;;3.00;;
20870;SDS011;10595;51.218;3.452;2022-09-09T08:26:03;9.47;;;2.83;;
20870;SDS011;10595;51.218;3.452;2022-09-09T08:28:29;7.03;;;2.60;;
20870;SDS011;10595;51.218;3.452;2022-09-09T08:30:56;7.20;;;2.70;;
20870;SDS011;10595;51.218;3.452;2022-09-09T08:33:22;9.03;;;2.97;;
20870;SDS011;10595;51.218;3.452;2022-09-09T08:35:50;8.07;;;2.57;;
20870;SDS011;10595;51.218;3.452;2022-09-09T08:38:17;11.27;;;3.30;;
20870;SDS011;10595;51.218;3.452;2022-09-09T08:40:44;10.93;;;3.73;;
20870;SDS011;10595;51.218;3.452;2022-09-09T08:43:14;8.10;;;3.17;;
20870;SDS011;10595;51.218;3.452;2022-09-09T08:46:03;9.90;;;2.90;;
20870;SDS011;10595;51.218;3.452;2022-09-09T08:50:59;9.93;;;3.27;;
20870;SDS011;10595;51.218;3.452;2022-09-09T08:53:31;11.07;;;3.10;;
20870;SDS011;10595;51.218;3.452;2022-09-09T08:56:04;10.80;;;3.43;;
20870;SDS011;10595;51.218;3.452;2022-09-09T08:58:34;7.07;;;3.20;;
20870;SDS011;10595;51.218;3.452;2022-09-09T09:11:40;7.73;;;2.93;;
20870;SDS011;10595;51.218;3.452;2022-09-09T09:14:10;6.33;;;2.73;;
20870;SDS011;10595;51.218;3.452;2022-09-09T09:16:39;7.20;;;3.37;;
20870;SDS011;10595;51.218;3.452;2022-09-09T09:19:11;4.93;;;2.40;;
20870;SDS011;10595;51.218;3.452;2022-09-09T09:21:40;5.50;;;2.17;;
20870;SDS011;10595;51.218;3.452;2022-09-09T09:24:27;7.57;;;2.80;;
20870;SDS011;10595;51.218;3.452;2022-09-09T09:26:57;5.57;;;2.70;;
20870;SDS011;10595;51.218;3.452;2022-09-09T09:29:26;7.70;;;2.90;;
20870;SDS011;10595;51.218;3.452;2022-09-09T09:31:53;7.23;;;2.67;;
20870;SDS011;10595;51.218;3.452;2022-09-09T09:34:22;8.20;;;3.20;;
20870;SDS011;10595;51.218;3.452;2022-09-09T09:36:56;9.30;;;3.17;;
20870;SDS011;10595;51.218;3.452;2022-09-09T09:39:32;6.53;;;2.80;;
20870;SDS011;10595;51.218;3.452;2022-09-09T09:42:12;11.13;;;2.53;;
20870;SDS011;10595;51.218;3.452;2022-09-09T09:44:39;4.10;;;2.37;;
20870;SDS011;10595;51.218;3.452;2022-09-09T09:47:07;6.50;;;2.80;;
20870;SDS011;10595;51.218;3.452;2022-09-09T09:49:34;7.87;;;2.50;;
20870;SDS011;10595;51.218;3.452;2022-09-09T09:52:01;7.90;;;3.10;;
20870;SDS011;10595;51.218;3.452;2022-09-09T09:54:28;8.90;;;2.70;;
20870;SDS011;10595;51.218;3.452;2022-09-09T09:56:54;6.73;;;2.53;;
20870;SDS011;10595;51.218;3.452;2022-09-09T09:59:21;6.43;;;2.63;;
20870;SDS011;10595;51.218;3.452;2022-09-09T10:01:48;7.50;;;2.33;;
20870;SDS011;10595;51.218;3.452;2022-09-09T10:04:14;5.70;;;2.40;;
20870;SDS011;10595;51.218;3.452;2022-09-09T10:06:41;8.00;;;2.13;;
20870;SDS011;10595;51.218;3.452;2022-09-09T10:09:21;3.73;;;1.83;;
20870;SDS011;10595;51.218;3.452;2022-09-09T10:12:02;3.37;;;1.93;;
20870;SDS011;10595;51.218;3.452;2022-09-09T10:14:33;7.77;;;1.80;;
20870;SDS011;10595;51.218;3.452;2022-09-09T10:17:06;9.80;;;2.03;;
20870;SDS011;10595;51.218;3.452;2022-09-09T10:19:34;2.93;;;1.70;;
20870;SDS011;10595;51.218;3.452;2022-09-09T10:22:16;4.50;;;2.00;;
20870;SDS011;10595;51.218;3.452;2022-09-09T10:24:49;4.83;;;1.60;;
20870;SDS011;10595;51.218;3.452;2022-09-09T10:32:26;8.20;;;2.10;;
20870;SDS011;10595;51.218;3.452;2022-09-09T10:37:39;2.70;;;1.40;;
20870;SDS011;10595;51.218;3.452;2022-09-09T10:42:43;4.50;;;1.97;;
20870;SDS011;10595;51.218;3.452;2022-09-09T10:45:19;2.63;;;1.40;;
20870;SDS011;10595;51.218;3.452;2022-09-09T10:48:09;4.60;;;1.57;;
20870;SDS011;10595;51.218;3.452;2022-09-09T10:55:53;5.10;;;1.90;;
20870;SDS011;10595;51.218;3.452;2022-09-09T10:58:23;4.33;;;2.30;;
20870;SDS011;10595;51.218;3.452;2022-09-09T11:00:53;7.50;;;2.13;;
20870;SDS011;10595;51.218;3.452;2022-09-09T11:03:29;4.70;;;1.80;;
20870;SDS011;10595;51.218;3.452;2022-09-09T11:06:04;4.47;;;2.20;;
20870;SDS011;10595;51.218;3.452;2022-09-09T11:08:31;5.77;;;2.03;;
20870;SDS011;10595;51.218;3.452;2022-09-09T11:11:00;6.50;;;2.33;;
20870;SDS011;10595;51.218;3.452;2022-09-09T11:16:44;4.97;;;2.00;;
20870;SDS011;10595;51.218;3.452;2022-09-09T11:18:50;4.43;;;2.33;;
20870;SDS011;10595;51.218;3.452;2022-09-09T11:21:21;5.43;;;2.57;;
20870;SDS011;10595;51.218;3.452;2022-09-09T11:23:54;6.73;;;2.60;;
20870;SDS011;10595;51.218;3.452;2022-09-09T11:26:28;4.87;;;2.50;;
20870;SDS011;10595;51.218;3.452;2022-09-09T11:29:02;6.77;;;2.63;;
20870;SDS011;10595;51.218;3.452;2022-09-09T11:39:09;9.17;;;3.13;;
20870;SDS011;10595;51.218;3.452;2022-09-09T11:41:41;7.93;;;3.00;;
20870;SDS011;10595;51.218;3.452;2022-09-09T11:44:16;7.50;;;3.07;;
20870;SDS011;10595;51.218;3.452;2022-09-09T11:46:43;6.73;;;3.07;;
20870;SDS011;10595;51.218;3.452;2022-09-09T11:49:28;7.13;;;2.90;;
20870;SDS011;10595;51.218;3.452;2022-09-09T11:51:54;8.30;;;3.30;;
20870;SDS011;10595;51.218;3.452;2022-09-09T11:54:28;21.60;;;4.17;;
20870;SDS011;10595;51.218;3.452;2022-09-09T11:56:55;7.40;;;2.53;;
20870;SDS011;10595;51.218;3.452;2022-09-09T11:59:22;7.63;;;2.20;;
20870;SDS011;10595;51.218;3.452;2022-09-09T12:02:02;7.43;;;3.50;;
20870;SDS011;10595;51.218;3.452;2022-09-09T12:04:32;5.33;;;3.10;;
20870;SDS011;10595;51.218;3.452;2022-09-09T12:09:29;6.90;;;2.93;;
20870;SDS011;10595;51.218;3.452;2022-09-09T12:12:06;6.43;;;2.40;;
20870;SDS011;10595;51.218;3.452;2022-09-09T12:14:42;4.67;;;1.97;;
20870;SDS011;10595;51.218;3.452;2022-09-09T12:17:10;2.17;;;1.33;;
20870;SDS011;10595;51.218;3.452;2022-09-09T12:19:43;2.60;;;1.03;;
20870;SDS011;10595;51.218;3.452;2022-09-09T12:24:43;3.37;;;1.23;;
20870;SDS011;10595;51.218;3.452;2022-09-09T12:27:15;2.23;;;1.00;;
20870;SDS011;10595;51.218;3.452;2022-09-09T12:29:50;2.07;;;1.10;;
20870;SDS011;10595;51.218;3.452;2022-09-09T12:32:22;4.00;;;1.40;;
20870;SDS011;10595;51.218;3.452;2022-09-09T12:40:01;3.73;;;1.60;;
20870;SDS011;10595;51.218;3.452;2022-09-09T12:42:28;3.57;;;2.30;;
20870;SDS011;10595;51.218;3.452;2022-09-09T12:47:22;5.03;;;2.60;;
20870;SDS011;10595;51.218;3.452;2022-09-09T12:49:48;5.17;;;2.73;;
20870;SDS011;10595;51.218;3.452;2022-09-09T12:54:43;5.67;;;2.77;;
20870;SDS011;10595;51.218;3.452;2022-09-09T12:57:11;5.07;;;2.53;;
20870;SDS011;10595;51.218;3.452;2022-09-09T12:59:39;7.10;;;3.50;;
20870;SDS011;10595;51.218;3.452;2022-09-09T13:02:25;5.83;;;3.00;;
20870;SDS011;10595;51.218;3.452;2022-09-09T13:04:53;10.20;;;3.73;;
20870;SDS011;10595;51.218;3.452;2022-09-09T13:07:20;10.13;;;3.67;;
20870;SDS011;10595;51.218;3.452;2022-09-09T13:09:47;9.43;;;3.57;;
20870;SDS011;10595;51.218;3.452;2022-09-09T13:12:18;6.87;;;2.60;;
20870;SDS011;10595;51.218;3.452;2022-09-09T13:14:45;5.40;;;2.80;;
20870;SDS011;10595;51.218;3.452;2022-09-09T13:17:23;4.60;;;3.10;;
20870;SDS011;10595;51.218;3.452;2022-09-09T13:19:49;5.73;;;2.43;;
20870;SDS011;10595;51.218;3.452;2022-09-09T13:22:29;4.83;;;2.03;;
20870;SDS011;10595;51.218;3.452;2022-09-09T13:27:51;7.33;;;2.73;;
20870;SDS011;10595;51.218;3.452;2022-09-09T13:30:22;4.73;;;2.70;;
20870;SDS011;10595;51.218;3.452;2022-09-09T13:35:27;9.13;;;2.93;;
20870;SDS011;10595;51.218;3.452;2022-09-09T13:37:54;9.97;;;3.40;;
20870;SDS011;10595;51.218;3.452;2022-09-09T13:40:21;7.40;;;3.63;;
20870;SDS011;10595;51.218;3.452;2022-09-09T13:42:47;5.37;;;3.23;;
20870;SDS011;10595;51.218;3.452;2022-09-09T13:45:31;9.07;;;3.60;;
20870;SDS011;10595;51.218;3.452;2022-09-09T13:47:59;7.00;;;3.50;;
20870;SDS011;10595;51.218;3.452;2022-09-09T13:50:33;9.30;;;4.83;;
20870;SDS011;10595;51.218;3.452;2022-09-09T13:52:59;7.43;;;3.73;;
20870;SDS011;10595;51.218;3.452;2022-09-09T13:55:29;6.43;;;4.00;;
20870;SDS011;10595;51.218;3.452;2022-09-09T13:57:56;7.67;;;4.23;;
20870;SDS011;10595;51.218;3.452;2022-09-09T14:00:23;7.00;;;3.93;;
20870;SDS011;10595;51.218;3.452;2022-09-09T14:02:50;8.63;;;4.57;;
20870;SDS011;10595;51.218;3.452;2022-09-09T14:05:17;9.33;;;4.43;;
20870;SDS011;10595;51.218;3.452;2022-09-09T14:07:43;9.27;;;4.20;;
20870;SDS011;10595;51.218;3.452;2022-09-09T14:10:10;10.90;;;4.27;;
20870;SDS011;10595;51.218;3.452;2022-09-09T14:12:36;8.97;;;3.97;;
20870;SDS011;10595;51.218;3.452;2022-09-09T14:15:03;8.80;;;3.90;;
20870;SDS011;10595;51.218;3.452;2022-09-09T14:17:29;10.60;;;3.70;;
20870;SDS011;10595;51.218;3.452;2022-09-09T14:19:56;7.63;;;3.80;;
20870;SDS011;10595;51.218;3.452;2022-09-09T14:22:22;9.30;;;3.90;;
20870;SDS011;10595;51.218;3.452;2022-09-09T14:24:48;10.53;;;3.57;;
20870;SDS011;10595;51.218;3.452;2022-09-09T14:27:16;7.87;;;2.87;;
20870;SDS011;10595;51.218;3.452;2022-09-09T14:29:42;7.93;;;2.83;;
20870;SDS011;10595;51.218;3.452;2022-09-09T14:32:09;4.80;;;2.03;;
20870;SDS011;10595;51.218;3.452;2022-09-09T14:34:35;3.90;;;1.93;;
20870;SDS011;10595;51.218;3.452;2022-09-09T14:37:01;4.63;;;2.10;;
20870;SDS011;10595;51.218;3.452;2022-09-09T14:39:27;5.33;;;2.67;;
20870;SDS011;10595;51.218;3.452;2022-09-09T14:41:53;6.30;;;2.67;;
20870;SDS011;10595;51.218;3.452;2022-09-09T14:44:19;6.07;;;2.53;;
20870;SDS011;10595;51.218;3.452;2022-09-09T14:46:46;5.50;;;2.23;;
20870;SDS011;10595;51.218;3.452;2022-09-09T14:49:15;4.93;;;2.40;;
20870;SDS011;10595;51.218;3.452;2022-09-09T14:51:41;7.30;;;2.10;;
20870;SDS011;10595;51.218;3.452;2022-09-09T14:54:07;9.40;;;2.27;;
20870;SDS011;10595;51.218;3.452;2022-09-09T14:56:33;5.40;;;2.40;;
20870;SDS011;10595;51.218;3.452;2022-09-09T14:59:00;8.47;;;2.70;;
20870;SDS011;10595;51.218;3.452;2022-09-09T15:01:26;5.60;;;2.40;;
20870;SDS011;10595;51.218;3.452;2022-09-09T15:03:54;4.47;;;2.10;;
20870;SDS011;10595;51.218;3.452;2022-09-09T15:06:20;4.00;;;2.00;;
20870;SDS011;10595;51.218;3.452;2022-09-09T15:08:47;5.00;;;1.90;;
20870;SDS011;10595;51.218;3.452;2022-09-09T15:11:13;6.53;;;1.97;;
20870;SDS011;10595;51.218;3.452;2022-09-09T15:13:40;5.43;;;2.40;;
20870;SDS011;10595;51.218;3.452;2022-09-09T15:16:08;5.27;;;1.80;;
20870;SDS011;10595;51.218;3.452;2022-09-09T15:18:35;4.10;;;1.80;;
20870;SDS011;10595;51.218;3.452;2022-09-09T15:21:02;3.77;;;2.07;;
20870;SDS011;10595;51.218;3.452;2022-09-09T15:23:33;4.77;;;2.10;;
20870;SDS011;10595;51.218;3.452;2022-09-09T15:25:59;3.73;;;1.73;;
20870;SDS011;10595;51.218;3.452;2022-09-09T15:28:25;5.07;;;1.67;;
20870;SDS011;10595;51.218;3.452;2022-09-09T15:30:51;4.87;;;1.90;;
20870;SDS011;10595;51.218;3.452;2022-09-09T15:33:18;5.10;;;1.80;;
20870;SDS011;10595;51.218;3.452;2022-09-09T15:35:44;6.70;;;2.10;;
20870;SDS011;10595;51.218;3.452;2022-09-09T15:38:10;5.87;;;2.20;;
20870;SDS011;10595;51.218;3.452;2022-09-09T15:40:38;4.63;;;1.90;;
20870;SDS011;10595;51.218;3.452;2022-09-09T15:43:05;8.03;;;2.20;;
20870;SDS011;10595;51.218;3.452;2022-09-09T15:45:31;5.27;;;2.13;;
20870;SDS011;10595;51.218;3.452;2022-09-09T15:47:58;6.60;;;2.20;;
20870;SDS011;10595;51.218;3.452;2022-09-09T15:50:24;5.70;;;2.20;;
20870;SDS011;10595;51.218;3.452;2022-09-09T15:52:51;6.03;;;2.87;;
20870;SDS011;10595;51.218;3.452;2022-09-09T15:55:18;12.23;;;3.27;;
20870;SDS011;10595;51.218;3.452;2022-09-09T15:57:45;11.47;;;3.20;;
20870;SDS011;10595;51.218;3.452;2022-09-09T16:00:11;7.00;;;2.70;;
20870;SDS011;10595;51.218;3.452;2022-09-09T16:02:38;10.47;;;2.83;;
20870;SDS011;10595;51.218;3.452;2022-09-09T16:05:04;9.70;;;2.87;;
20870;SDS011;10595;51.218;3.452;2022-09-09T16:07:30;11.07;;;2.97;;
20870;SDS011;10595;51.218;3.452;2022-09-09T16:09:56;7.63;;;2.80;;
20870;SDS011;10595;51.218;3.452;2022-09-09T16:12:22;7.67;;;2.83;;
20870;SDS011;10595;51.218;3.452;2022-09-09T16:14:48;7.63;;;2.50;;
20870;SDS011;10595;51.218;3.452;2022-09-09T16:17:14;6.23;;;2.53;;
20870;SDS011;10595;51.218;3.452;2022-09-09T16:19:40;7.90;;;2.70;;
20870;SDS011;10595;51.218;3.452;2022-09-09T16:22:06;12.00;;;3.70;;
20870;SDS011;10595;51.218;3.452;2022-09-09T16:24:33;8.87;;;3.20;;
20870;SDS011;10595;51.218;3.452;2022-09-09T16:26:59;8.63;;;3.60;;
20870;SDS011;10595;51.218;3.452;2022-09-09T16:29:25;7.27;;;3.83;;
20870;SDS011;10595;51.218;3.452;2022-09-09T16:31:52;9.13;;;3.90;;
20870;SDS011;10595;51.218;3.452;2022-09-09T16:34:19;6.20;;;2.10;;
20870;SDS011;10595;51.218;3.452;2022-09-09T16:36:45;5.80;;;2.17;;
20870;SDS011;10595;51.218;3.452;2022-09-09T16:39:15;4.77;;;2.43;;
20870;SDS011;10595;51.218;3.452;2022-09-09T16:41:41;7.10;;;2.30;;
20870;SDS011;10595;51.218;3.452;2022-09-09T16:44:09;5.20;;;2.23;;
20870;SDS011;10595;51.218;3.452;2022-09-09T16:46:37;6.93;;;2.87;;
20870;SDS011;10595;51.218;3.452;2022-09-09T16:49:04;5.83;;;3.50;;
20870;SDS011;10595;51.218;3.452;2022-09-09T16:51:31;5.30;;;3.20;;